Cathlamet — WYR7641 — position and weather

sailwx.info

Track history (hours):
 
Tides and Currents Weather Stations Pressure Air Temp Water Temp Dewpoint Dewpoint Depression Visibility Wind Speed Wind Dir Waves Ship Positions

Cathlamet

Owner: WASHINGTON, STATE OF; Dept. of Transportation, OLYMPIA, WA. More information available from US FCC via Universal Licensing System and Coast Guard Vessel Documentation Center.

Last reported at 2015-Sep-03 20:34 UTC. Time now 2015-Sep-03 21:32 UTC.
Position N 47°31' W 122°28'.

Length 100 m.

Type: Passenger vessel. MMSI: 366773070.

Date/timePositionNaut miles runAvg speedWind from/ knotsBaromVisibWave heightAir tempDewpointWater temp
2015-Sep-03 20:34N 47°31' W 122°28'011.2
2015-Sep-03 20:31N 47°31' W 122°27'1 1.2
2015-Sep-03 19:34N 47°31' W 122°29'0 0.7
2015-Sep-03 19:09N 47°31' W 122°29'3 5.5
2015-Sep-03 18:33N 47°31' W 122°24'1 5.5
2015-Sep-03 18:19N 47°31' W 122°26'0 0.5
2015-Sep-03 17:34N 47°31' W 122°25'116.3
2015-Sep-03 17:29N 47°31' W 122°27'1 0.6
2015-Sep-03 16:34N 47°31' W 122°28'0 0.0
2015-Sep-03 16:33N 47°31' W 122°28'0 0.2
2015-Sep-03 15:34N 47°31' W 122°28'112.7
2015-Sep-03 15:28N 47°31' W 122°30'3 3.8
2015-Sep-03 14:34N 47°31' W 122°25'015.7
2015-Sep-03 14:32N 47°31' W 122°25'2 1.8
2015-Sep-03 13:34N 47°31' W 122°28'011.3
2015-Sep-03 13:32N 47°31' W 122°28'0 0.4
2015-Sep-03 12:34N 47°31' W 122°28'0 3.6
2015-Sep-03 12:32N 47°31' W 122°28'1 1.5
2015-Sep-03 11:34N 47°31' W 122°30'0 0.0
2015-Sep-03 11:32N 47°31' W 122°30'3 3.2
2015-Sep-03 10:34N 47°31' W 122°25'116.5
2015-Sep-03 10:31N 47°31' W 122°26'0 0.3
2015-Sep-03 09:33N 47°31' W 122°27'110.7
2015-Sep-03 09:30N 47°31' W 122°27'2 1.6
2015-Sep-03 08:34N 47°31' W 122°30'0 6.5
2015-Sep-03 08:29N 47°31' W 122°29'2 2.0
2015-Sep-03 07:34N 47°32' W 122°27'022.4
2015-Sep-03 07:34N 47°32' W 122°27'3 2.6
2015-Sep-03 06:33N 47°31' W 122°24'1 3.9
2015-Sep-03 06:19N 47°31' W 122°25'316.9
2015-Sep-03 06:08N 47°31' W 122°30'1 2.1
2015-Sep-03 05:33N 47°31' W 122°28'0 0.1
2015-Sep-03 04:33N 47°31' W 122°28'0 5.4
2015-Sep-03 04:33N 47°31' W 122°28'0 0.3
2015-Sep-03 03:34N 47°31' W 122°28'013.6
2015-Sep-03 03:32N 47°31' W 122°29'3 2.9
2015-Sep-03 02:33N 47°31' W 122°24'0 0.7
2015-Sep-03 02:12N 47°31' W 122°24'4 6.1
2015-Sep-03 01:33N 47°31' W 122°30'0 0.0
2015-Sep-03 01:22N 47°31' W 122°30'4 5.0
2015-Sep-03 00:33N 47°31' W 122°24'1 4.2
2015-Sep-03 00:22N 47°31' W 122°25'1 1.0
2015-Sep-02 23:33N 47°31' W 122°24'0 8.1
2015-Sep-02 23:32N 47°31' W 122°24'0 0.3
2015-Sep-02 22:33N 47°31' W 122°24'1 1.7
2015-Sep-02 22:07N 47°32' W 122°25'3 4.8
2015-Sep-02 21:33N 47°31' W 122°29'115.7
2015-Sep-02 21:31N 47°31' W 122°28'1 1.0
2015-Sep-02 20:34N 47°31' W 122°26'116.7
2015-Sep-02 20:31N 47°31' W 122°25'3 2.9
2015-Sep-02 19:33N 47°31' W 122°29'0 1.4
2015-Sep-02 19:25N 47°31' W 122°30'4 4.7
2015-Sep-02 18:33N 47°31' W 122°24'0 2.4
2015-Sep-02 18:25N 47°31' W 122°24'1 0.8
2015-Sep-02 17:33N 47°31' W 122°25'210.6
2015-Sep-02 17:24N 47°31' W 122°28'0 0.0
2015-Sep-02 16:33N 47°31' W 122°28'1 2.9
2015-Sep-02 16:23N 47°31' W 122°27'0 0.6
2015-Sep-02 15:33N 47°31' W 122°28'0 0.3
2015-Sep-02 15:32N 47°31' W 122°28'2 1.5
2015-Sep-02 14:34N 47°31' W 122°26'014.0
2015-Sep-02 14:32N 47°31' W 122°26'1 1.1
2015-Sep-02 13:34N 47°31' W 122°25'112.9
2015-Sep-02 13:31N 47°31' W 122°25'2 1.8
2015-Sep-02 12:33N 47°31' W 122°28'0 0.0
2015-Sep-02 12:31N 47°31' W 122°28'0 0.0
2015-Sep-02 11:33N 47°31' W 122°28'0 2.8
2015-Sep-02 11:31N 47°31' W 122°28'0 0.1
2015-Sep-02 10:33N 47°31' W 122°28'0 0.0
2015-Sep-02 10:30N 47°31' W 122°28'0 0.0
2015-Sep-02 09:33N 47°31' W 122°28'0 0.1
2015-Sep-02 09:30N 47°31' W 122°28'0 0.0
2015-Sep-02 08:34N 47°31' W 122°28'0 0.0
2015-Sep-02 08:30N 47°31' W 122°28'0 0.0
2015-Sep-02 07:34N 47°31' W 122°28'0 0.1
2015-Sep-02 07:30N 47°31' W 122°28'0 0.0
2015-Sep-02 06:33N 47°31' W 122°28'0 0.0
2015-Sep-02 06:24N 47°31' W 122°28'0 0.0
2015-Sep-02 05:34N 47°31' W 122°28'0 0.0
2015-Sep-02 05:29N 47°31' W 122°28'0 0.0
2015-Sep-02 04:34N 47°31' W 122°28'0 5.4
2015-Sep-02 04:33N 47°31' W 122°28'0 0.3
2015-Sep-02 03:33N 47°31' W 122°28'0 7.2
2015-Sep-02 03:32N 47°31' W 122°28'2 2.5
2015-Sep-02 02:33N 47°31' W 122°24'0 0.0
2015-Sep-02 02:33N 47°31' W 122°24'4 3.7
2015-Sep-02 01:33N 47°31' W 122°30'0 0.3
2015-Sep-02 01:23N 47°31' W 122°30'4 4.8
2015-Sep-02 00:33N 47°31' W 122°24'0 1.2
2015-Sep-02 00:27N 47°31' W 122°24'0 0.5
2015-Sep-01 23:33N 47°31' W 122°25'0 1.8
2015-Sep-01 23:32N 47°31' W 122°25'1 0.7
2015-Sep-01 22:33N 47°31' W 122°24'0 1.3
2015-Sep-01 22:17N 47°31' W 122°24'3 3.8
2015-Sep-01 21:33N 47°31' W 122°28'010.6
2015-Sep-01 21:32N 47°32' W 122°28'1 1.1
2015-Sep-01 20:34N 47°31' W 122°27'012.9
2015-Sep-01 20:32N 47°31' W 122°26'2 2.1
2015-Sep-01 19:34N 47°31' W 122°29'0 9.3
2015-Sep-01 19:32N 47°31' W 122°30'4 4.1
2015-Sep-01 18:34N 47°31' W 122°24'0 1.5
2015-Sep-01 18:26N 47°31' W 122°24'1 0.6
2015-Sep-01 17:33N 47°31' W 122°25'112.3
2015-Sep-01 17:31N 47°31' W 122°26'2 1.6
2015-Sep-01 16:33N 47°31' W 122°28'1 5.3
2015-Sep-01 16:26N 47°31' W 122°27'1 0.7
2015-Sep-01 15:33N 47°31' W 122°28'0 0.2
2015-Sep-01 15:31N 47°31' W 122°28'2 2.6
2015-Sep-01 14:34N 47°31' W 122°24'111.0
2015-Sep-01 14:31N 47°31' W 122°25'1 0.7
2015-Sep-01 13:34N 47°31' W 122°24'112.4
2015-Sep-01 13:31N 47°31' W 122°25'2 2.1
2015-Sep-01 12:33N 47°31' W 122°28'0 1.0
2015-Sep-01 12:25N 47°31' W 122°28'0 0.2
2015-Sep-01 11:33N 47°31' W 122°28'0 1.5
2015-Sep-01 11:30N 47°31' W 122°28'1 1.3
2015-Sep-01 10:33N 47°31' W 122°30'0 0.0
2015-Sep-01 09:50N 47°31' W 122°30'1 4.7
2015-Sep-01 09:33N 47°31' W 122°28'0 0.0
2015-Sep-01 09:29N 47°31' W 122°28'1 1.4
2015-Sep-01 08:34N 47°31' W 122°30'0 6.8
2015-Sep-01 08:30N 47°31' W 122°29'2 1.7
2015-Sep-01 07:34N 47°31' W 122°27'116.5
2015-Sep-01 07:29N 47°31' W 122°29'3 3.5
2015-Sep-01 06:33N 47°31' W 122°24'1 5.7
2015-Sep-01 06:19N 47°31' W 122°26'1 1.9
2015-Sep-01 05:34N 47°31' W 122°28'114.1
2015-Sep-01 05:28N 47°31' W 122°26'1 1.5
2015-Sep-01 04:33N 47°31' W 122°28'0 0.3
2015-Sep-01 03:34N 47°31' W 122°28'111.9
2015-Sep-01 03:28N 47°31' W 122°30'3 3.7
2015-Sep-01 02:34N 47°31' W 122°25'0 5.1
2015-Sep-01 02:33N 47°31' W 122°25'4 3.6
2015-Sep-01 01:33N 47°31' W 122°30'0 0.8
2015-Sep-01 01:18N 47°31' W 122°30'4 5.3
2015-Sep-01 00:33N 47°31' W 122°24'310.1
2015-Sep-01 00:17N 47°31' W 122°28'3 3.8
2015-Aug-31 23:34N 47°31' W 122°24'1 6.4
2015-Aug-31 23:28N 47°31' W 122°25'1 0.7
2015-Aug-31 22:34N 47°31' W 122°24'0 1.3
2015-Aug-31 22:12N 47°32' W 122°24'3 4.5
2015-Aug-31 21:33N 47°31' W 122°29'0 9.3
2015-Aug-31 21:32N 47°32' W 122°28'2 2.2
2015-Aug-31 20:33N 47°31' W 122°25'013.4
2015-Aug-31 20:32N 47°31' W 122°25'3 2.9
2015-Aug-31 19:33N 47°31' W 122°29'011.0
2015-Aug-31 19:32N 47°31' W 122°29'4 3.9
2015-Aug-31 18:32N 47°31' W 122°24'0 0.9
2015-Aug-31 18:22N 47°31' W 122°24'0 0.1
2015-Aug-31 17:33N 47°31' W 122°24'011.3
2015-Aug-31 17:31N 47°31' W 122°25'2 2.3
2015-Aug-31 16:33N 47°31' W 122°28'0 0.8
2015-Aug-31 16:21N 47°31' W 122°28'0 0.2
2015-Aug-31 15:34N 47°31' W 122°28'1 5.8
2015-Aug-31 15:26N 47°31' W 122°29'3 3.7
2015-Aug-31 14:34N 47°31' W 122°24'112.4
2015-Aug-31 14:31N 47°31' W 122°25'0 0.5
2015-Aug-31 13:34N 47°31' W 122°24'113.2
2015-Aug-31 13:31N 47°31' W 122°25'2 2.0
2015-Aug-31 12:33N 47°31' W 122°28'1 6.3
2015-Aug-31 12:25N 47°31' W 122°27'1 1.0
2015-Aug-31 11:33N 47°31' W 122°28'1 7.2
2015-Aug-31 11:25N 47°31' W 122°29'1 1.2
2015-Aug-31 10:33N 47°31' W 122°28'0 0.0
2015-Aug-31 10:30N 47°31' W 122°28'0 0.0
2015-Aug-31 09:33N 47°31' W 122°28'0 0.0
2015-Aug-31 09:29N 47°31' W 122°28'0 0.0
2015-Aug-31 08:33N 47°31' W 122°28'0 0.0
2015-Aug-31 08:29N 47°31' W 122°28'0 0.0
2015-Aug-31 07:33N 47°31' W 122°28'0 0.0
2015-Aug-31 07:24N 47°31' W 122°28'0 0.0
2015-Aug-31 06:33N 47°31' W 122°28'0 0.0
2015-Aug-31 06:29N 47°31' W 122°28'0 0.0
2015-Aug-31 05:33N 47°31' W 122°28'0 0.0
2015-Aug-31 05:29N 47°31' W 122°28'0 0.0
2015-Aug-31 04:33N 47°31' W 122°28'0 0.0
2015-Aug-31 04:29N 47°31' W 122°28'0 0.0
2015-Aug-31 03:33N 47°31' W 122°28'0 0.0
2015-Aug-31 03:33N 47°31' W 122°28'0 0.0
2015-Aug-31 02:33N 47°31' W 122°28'0 0.0
2015-Aug-31 02:33N 47°31' W 122°28'3 2.8
2015-Aug-31 01:34N 47°31' W 122°24'0 1.3
2015-Aug-31 01:13N 47°31' W 122°24'4 5.6
2015-Aug-31 00:33N 47°31' W 122°30'0 0.5
2015-Aug-31 00:28N 47°31' W 122°30'2 2.3
2015-Aug-30 23:34N 47°31' W 122°27'1 8.5
2015-Aug-30 23:28N 47°31' W 122°28'0 0.4
2015-Aug-30 22:33N 47°31' W 122°27'215.9
2015-Aug-30 22:28N 47°31' W 122°25'0 0.1
2015-Aug-30 21:33N 47°31' W 122°25'015.0
2015-Aug-30 21:32N 47°31' W 122°24'2 2.5
2015-Aug-30 20:33N 47°31' W 122°28'8 7.6
2015-Aug-30 19:33N 47°38' W 122°28'1515.2
2015-Aug-30 18:34N 47°53' W 122°23'5 5.0
2015-Aug-30 17:31N 47°57' W 122°18'0 0.5
2015-Aug-30 16:33N 47°57' W 122°19'0 0.1
2015-Aug-30 15:33N 47°57' W 122°19'2 0.1
2015-Aug-29 20:07N 47°58' W 122°21'2 4.1
2015-Aug-29 19:33N 47°57' W 122°18'0 0.1
2015-Aug-29 17:12N 47°57' W 122°18'0 0.5
2015-Aug-29 16:33N 47°57' W 122°19'0 0.0
2015-Aug-29 15:33N 47°57' W 122°19'0 0.0
2015-Aug-29 14:33N 47°57' W 122°19'0 0.1
2015-Aug-29 13:33N 47°57' W 122°19'2 0.6
2015-Aug-29 10:10N 47°59' W 122°21'0 0.0
2015-Aug-29 07:27N 47°59' W 122°21'2 2.5
2015-Aug-29 06:33N 47°57' W 122°18'0 0.2
2015-Aug-29 05:34N 47°57' W 122°19'0 0.2
2015-Aug-29 04:33N 47°57' W 122°18'1 0.6
2015-Aug-29 03:34N 47°57' W 122°19'1 0.5
2015-Aug-29 02:15N 47°57' W 122°18'1 0.8
2015-Aug-29 01:33N 47°57' W 122°19'1 0.5
2015-Aug-29 00:33N 47°57' W 122°18'0 0.1
2015-Aug-28 23:33N 47°57' W 122°18'0 0.0
2015-Aug-28 22:31N 47°57' W 122°18'1 0.7
2015-Aug-28 21:34N 47°57' W 122°19'1 0.6
2015-Aug-28 20:33N 47°57' W 122°18'0 0.1
2015-Aug-28 19:34N 47°57' W 122°18'0 0.0
2015-Aug-28 18:33N 47°57' W 122°18'0 0.1
2015-Aug-28 17:33N 47°57' W 122°18'0 0.5
2015-Aug-28 16:33N 47°57' W 122°19'0 0.1
2015-Aug-28 15:34N 47°57' W 122°19'0 0.3
2015-Aug-28 14:33N 47°57' W 122°18'0 0.3
2015-Aug-28 13:33N 47°57' W 122°19'0 0.4
2015-Aug-28 12:26N 47°57' W 122°18'2 1.2
2015-Aug-28 10:33N 47°58' W 122°21'0 0.0
2015-Aug-28 09:19N 47°58' W 122°21'0 0.0
2015-Aug-28 08:28N 47°58' W 122°21'0 0.4
2015-Aug-28 07:32N 47°58' W 122°21'0 0.1
2015-Aug-28 06:33N 47°58' W 122°21'0 0.3
2015-Aug-28 05:33N 47°58' W 122°21'2 1.7
2015-Aug-28 04:34N 47°57' W 122°19'0 0.4
2015-Aug-28 03:33N 47°57' W 122°19'0 0.3
2015-Aug-28 02:32N 47°57' W 122°18'0 0.0
2015-Aug-28 01:19N 47°57' W 122°18'0 0.0
2015-Aug-28 00:30N 47°57' W 122°18'0 0.0
2015-Aug-27 23:21N 47°57' W 122°18'0 0.0
2015-Aug-27 22:33N 47°57' W 122°18'0 0.0
2015-Aug-27 21:18N 47°57' W 122°18'0 0.0
2015-Aug-27 20:18N 47°57' W 122°18'0 0.1
2015-Aug-27 19:33N 47°57' W 122°18'0 0.0
2015-Aug-27 18:28N 47°57' W 122°18'0 0.2
2015-Aug-27 17:33N 47°57' W 122°18'0 0.2
2015-Aug-27 16:33N 47°57' W 122°19'0 0.1
2015-Aug-27 15:33N 47°57' W 122°19'0 0.1
2015-Aug-27 14:33N 47°57' W 122°19'0 0.0
2015-Aug-27 13:33N 47°57' W 122°19'1 0.5
2015-Aug-27 12:27N 47°57' W 122°18'2 0.4
2015-Aug-27 06:07N 47°59' W 122°21'0 0.0
2015-Aug-27 05:09N 47°59' W 122°21'0 0.0
2015-Aug-27 04:33N 47°59' W 122°21'2 2.4
2015-Aug-27 03:32N 47°57' W 122°18'0 0.0
2015-Aug-27 02:33N 47°57' W 122°18'0 0.0
2015-Aug-27 01:33N 47°57' W 122°18'0 0.0
2015-Aug-27 00:33N 47°57' W 122°18'0 0.0
2015-Aug-26 23:33N 47°57' W 122°18'0 0.0
2015-Aug-26 22:33N 47°57' W 122°18'0 0.0
2015-Aug-26 21:33N 47°57' W 122°18'0 0.0
2015-Aug-26 20:33N 47°57' W 122°18'0 0.1
2015-Aug-26 19:33N 47°57' W 122°18'0 0.5
2015-Aug-26 18:33N 47°57' W 122°19'0 0.1
2015-Aug-26 17:33N 47°57' W 122°19'0 0.4
2015-Aug-26 16:33N 47°57' W 122°18'0 0.1
2015-Aug-26 15:19N 47°57' W 122°18'0 0.3
2015-Aug-26 14:33N 47°57' W 122°19'0 0.3
2015-Aug-26 13:33N 47°57' W 122°19'1 0.4
2015-Aug-26 12:24N 47°57' W 122°18'2 0.7
2015-Aug-26 09:10N 47°58' W 122°21'0 0.0
2015-Aug-26 08:30N 47°58' W 122°21'0 0.4
2015-Aug-26 07:33N 47°58' W 122°21'0 0.2
2015-Aug-26 06:33N 47°58' W 122°20'0 0.3
2015-Aug-26 05:32N 47°58' W 122°21'0 0.0
2015-Aug-26 04:33N 47°58' W 122°21'1 1.1
2015-Aug-26 03:33N 47°57' W 122°20'1 0.8
2015-Aug-26 02:19N 47°57' W 122°18'0 0.1
2015-Aug-26 01:33N 47°57' W 122°18'0 0.0
2015-Aug-26 00:33N 47°57' W 122°18'0 0.0
2015-Aug-25 23:33N 47°57' W 122°18'0 0.0
2015-Aug-25 22:20N 47°57' W 122°18'0 0.0
2015-Aug-25 21:33N 47°57' W 122°18'0 0.3
2015-Aug-25 20:33N 47°57' W 122°19'0 0.1
2015-Aug-25 19:33N 47°57' W 122°19'0 0.1
2015-Aug-25 18:33N 47°57' W 122°19'0 0.4
2015-Aug-25 17:33N 47°57' W 122°18'0 0.2
2015-Aug-25 16:33N 47°57' W 122°19'0 0.1
2015-Aug-25 15:33N 47°57' W 122°19'0 0.2
2015-Aug-25 14:33N 47°57' W 122°19'0 0.1
2015-Aug-25 13:33N 47°57' W 122°19'0 0.3
2015-Aug-25 12:26N 47°57' W 122°18'2 1.2
2015-Aug-25 10:32N 47°58' W 122°21'0 0.0
2015-Aug-25 09:31N 47°58' W 122°21'0 0.0
2015-Aug-25 08:33N 47°58' W 122°21'1 0.7
2015-Aug-25 07:33N 47°58' W 122°20'0 0.3
2015-Aug-25 06:33N 47°58' W 122°20'0 0.2
2015-Aug-25 05:32N 47°58' W 122°21'0 0.3
2015-Aug-25 04:33N 47°58' W 122°21'1 1.1
2015-Aug-25 03:33N 47°58' W 122°20'1 1.0
2015-Aug-25 02:13N 47°57' W 122°18'0 0.5
2015-Aug-25 01:34N 47°57' W 122°19'0 0.3
2015-Aug-25 00:27N 47°57' W 122°18'0 0.0
2015-Aug-24 23:16N 47°57' W 122°18'0 0.0
2015-Aug-24 22:17N 47°57' W 122°18'0 0.0
2015-Aug-24 21:32N 47°57' W 122°18'  
Track history (hours):
 
Tides and Currents Weather Stations Pressure Air Temp Water Temp Dewpoint Dewpoint Depression Visibility Wind Speed Wind Dir Waves Ship Positions

Cathlamet

Owner: WASHINGTON, STATE OF; Dept. of Transportation, OLYMPIA, WA. More information available from US FCC via Universal Licensing System and Coast Guard Vessel Documentation Center.

Last reported at 2015-Sep-03 20:34 UTC. Time now 2015-Sep-03 21:32 UTC.
Position N 47°31' W 122°28'.

Length 100 m.

Type: Passenger vessel. MMSI: 366773070.

Date/timePositionNaut miles runAvg speedWind from/ knotsBaromVisibWave heightAir tempDewpointWater temp
2015-Sep-03 20:34N 47°31' W 122°28'011.2
2015-Sep-03 20:31N 47°31' W 122°27'1 1.2
2015-Sep-03 19:34N 47°31' W 122°29'0 0.7
2015-Sep-03 19:09N 47°31' W 122°29'3 5.5
2015-Sep-03 18:33N 47°31' W 122°24'1 5.5
2015-Sep-03 18:19N 47°31' W 122°26'0 0.5
2015-Sep-03 17:34N 47°31' W 122°25'116.3
2015-Sep-03 17:29N 47°31' W 122°27'1 0.6
2015-Sep-03 16:34N 47°31' W 122°28'0 0.0
2015-Sep-03 16:33N 47°31' W 122°28'0 0.2
2015-Sep-03 15:34N 47°31' W 122°28'112.7
2015-Sep-03 15:28N 47°31' W 122°30'3 3.8
2015-Sep-03 14:34N 47°31' W 122°25'015.7
2015-Sep-03 14:32N 47°31' W 122°25'2 1.8
2015-Sep-03 13:34N 47°31' W 122°28'011.3
2015-Sep-03 13:32N 47°31' W 122°28'0 0.4
2015-Sep-03 12:34N 47°31' W 122°28'0 3.6
2015-Sep-03 12:32N 47°31' W 122°28'1 1.5
2015-Sep-03 11:34N 47°31' W 122°30'0 0.0
2015-Sep-03 11:32N 47°31' W 122°30'3 3.2
2015-Sep-03 10:34N 47°31' W 122°25'116.5
2015-Sep-03 10:31N 47°31' W 122°26'0 0.3
2015-Sep-03 09:33N 47°31' W 122°27'110.7
2015-Sep-03 09:30N 47°31' W 122°27'2 1.6
2015-Sep-03 08:34N 47°31' W 122°30'0 6.5
2015-Sep-03 08:29N 47°31' W 122°29'2 2.0
2015-Sep-03 07:34N 47°32' W 122°27'022.4
2015-Sep-03 07:34N 47°32' W 122°27'3 2.6
2015-Sep-03 06:33N 47°31' W 122°24'1 3.9
2015-Sep-03 06:19N 47°31' W 122°25'316.9
2015-Sep-03 06:08N 47°31' W 122°30'1 2.1
2015-Sep-03 05:33N 47°31' W 122°28'0 0.1
2015-Sep-03 04:33N 47°31' W 122°28'0 5.4
2015-Sep-03 04:33N 47°31' W 122°28'0 0.3
2015-Sep-03 03:34N 47°31' W 122°28'013.6
2015-Sep-03 03:32N 47°31' W 122°29'3 2.9
2015-Sep-03 02:33N 47°31' W 122°24'0 0.7
2015-Sep-03 02:12N 47°31' W 122°24'4 6.1
2015-Sep-03 01:33N 47°31' W 122°30'0 0.0
2015-Sep-03 01:22N 47°31' W 122°30'4 5.0
2015-Sep-03 00:33N 47°31' W 122°24'1 4.2
2015-Sep-03 00:22N 47°31' W 122°25'1 1.0
2015-Sep-02 23:33N 47°31' W 122°24'0 8.1
2015-Sep-02 23:32N 47°31' W 122°24'0 0.3
2015-Sep-02 22:33N 47°31' W 122°24'1 1.7
2015-Sep-02 22:07N 47°32' W 122°25'3 4.8
2015-Sep-02 21:33N 47°31' W 122°29'115.7
2015-Sep-02 21:31N 47°31' W 122°28'1 1.0
2015-Sep-02 20:34N 47°31' W 122°26'116.7
2015-Sep-02 20:31N 47°31' W 122°25'3 2.9
2015-Sep-02 19:33N 47°31' W 122°29'0 1.4
2015-Sep-02 19:25N 47°31' W 122°30'4 4.7
2015-Sep-02 18:33N 47°31' W 122°24'0 2.4
2015-Sep-02 18:25N 47°31' W 122°24'1 0.8
2015-Sep-02 17:33N 47°31' W 122°25'210.6
2015-Sep-02 17:24N 47°31' W 122°28'0 0.0
2015-Sep-02 16:33N 47°31' W 122°28'1 2.9
2015-Sep-02 16:23N 47°31' W 122°27'0 0.6
2015-Sep-02 15:33N 47°31' W 122°28'0 0.3
2015-Sep-02 15:32N 47°31' W 122°28'2 1.5
2015-Sep-02 14:34N 47°31' W 122°26'014.0
2015-Sep-02 14:32N 47°31' W 122°26'1 1.1
2015-Sep-02 13:34N 47°31' W 122°25'112.9
2015-Sep-02 13:31N 47°31' W 122°25'2 1.8
2015-Sep-02 12:33N 47°31' W 122°28'0 0.0
2015-Sep-02 12:31N 47°31' W 122°28'0 0.0
2015-Sep-02 11:33N 47°31' W 122°28'0 2.8
2015-Sep-02 11:31N 47°31' W 122°28'0 0.1
2015-Sep-02 10:33N 47°31' W 122°28'0 0.0
2015-Sep-02 10:30N 47°31' W 122°28'0 0.0
2015-Sep-02 09:33N 47°31' W 122°28'0 0.1
2015-Sep-02 09:30N 47°31' W 122°28'0 0.0
2015-Sep-02 08:34N 47°31' W 122°28'0 0.0
2015-Sep-02 08:30N 47°31' W 122°28'0 0.0
2015-Sep-02 07:34N 47°31' W 122°28'0 0.1
2015-Sep-02 07:30N 47°31' W 122°28'0 0.0
2015-Sep-02 06:33N 47°31' W 122°28'0 0.0
2015-Sep-02 06:24N 47°31' W 122°28'0 0.0
2015-Sep-02 05:34N 47°31' W 122°28'0 0.0
2015-Sep-02 05:29N 47°31' W 122°28'0 0.0
2015-Sep-02 04:34N 47°31' W 122°28'0 5.4
2015-Sep-02 04:33N 47°31' W 122°28'0 0.3
2015-Sep-02 03:33N 47°31' W 122°28'0 7.2
2015-Sep-02 03:32N 47°31' W 122°28'2 2.5
2015-Sep-02 02:33N 47°31' W 122°24'0 0.0
2015-Sep-02 02:33N 47°31' W 122°24'4 3.7
2015-Sep-02 01:33N 47°31' W 122°30'0 0.3
2015-Sep-02 01:23N 47°31' W 122°30'4 4.8
2015-Sep-02 00:33N 47°31' W 122°24'0 1.2
2015-Sep-02 00:27N 47°31' W 122°24'0 0.5
2015-Sep-01 23:33N 47°31' W 122°25'0 1.8
2015-Sep-01 23:32N 47°31' W 122°25'1 0.7
2015-Sep-01 22:33N 47°31' W 122°24'0 1.3
2015-Sep-01 22:17N 47°31' W 122°24'3 3.8
2015-Sep-01 21:33N 47°31' W 122°28'010.6
2015-Sep-01 21:32N 47°32' W 122°28'1 1.1
2015-Sep-01 20:34N 47°31' W 122°27'012.9
2015-Sep-01 20:32N 47°31' W 122°26'2 2.1
2015-Sep-01 19:34N 47°31' W 122°29'0 9.3
2015-Sep-01 19:32N 47°31' W 122°30'4 4.1
2015-Sep-01 18:34N 47°31' W 122°24'0 1.5
2015-Sep-01 18:26N 47°31' W 122°24'1 0.6
2015-Sep-01 17:33N 47°31' W 122°25'112.3
2015-Sep-01 17:31N 47°31' W 122°26'2 1.6
2015-Sep-01 16:33N 47°31' W 122°28'1 5.3
2015-Sep-01 16:26N 47°31' W 122°27'1 0.7
2015-Sep-01 15:33N 47°31' W 122°28'0 0.2
2015-Sep-01 15:31N 47°31' W 122°28'2 2.6
2015-Sep-01 14:34N 47°31' W 122°24'111.0
2015-Sep-01 14:31N 47°31' W 122°25'1 0.7
2015-Sep-01 13:34N 47°31' W 122°24'112.4
2015-Sep-01 13:31N 47°31' W 122°25'2 2.1
2015-Sep-01 12:33N 47°31' W 122°28'0 1.0
2015-Sep-01 12:25N 47°31' W 122°28'0 0.2
2015-Sep-01 11:33N 47°31' W 122°28'0 1.5
2015-Sep-01 11:30N 47°31' W 122°28'1 1.3
2015-Sep-01 10:33N 47°31' W 122°30'0 0.0
2015-Sep-01 09:50N 47°31' W 122°30'1 4.7
2015-Sep-01 09:33N 47°31' W 122°28'0 0.0
2015-Sep-01 09:29N 47°31' W 122°28'1 1.4
2015-Sep-01 08:34N 47°31' W 122°30'0 6.8
2015-Sep-01 08:30N 47°31' W 122°29'2 1.7
2015-Sep-01 07:34N 47°31' W 122°27'116.5
2015-Sep-01 07:29N 47°31' W 122°29'3 3.5
2015-Sep-01 06:33N 47°31' W 122°24'1 5.7
2015-Sep-01 06:19N 47°31' W 122°26'1 1.9
2015-Sep-01 05:34N 47°31' W 122°28'114.1
2015-Sep-01 05:28N 47°31' W 122°26'1 1.5
2015-Sep-01 04:33N 47°31' W 122°28'0 0.3
2015-Sep-01 03:34N 47°31' W 122°28'111.9
2015-Sep-01 03:28N 47°31' W 122°30'3 3.7
2015-Sep-01 02:34N 47°31' W 122°25'0 5.1
2015-Sep-01 02:33N 47°31' W 122°25'4 3.6
2015-Sep-01 01:33N 47°31' W 122°30'0 0.8
2015-Sep-01 01:18N 47°31' W 122°30'4 5.3
2015-Sep-01 00:33N 47°31' W 122°24'310.1
2015-Sep-01 00:17N 47°31' W 122°28'3 3.8
2015-Aug-31 23:34N 47°31' W 122°24'1 6.4
2015-Aug-31 23:28N 47°31' W 122°25'1 0.7
2015-Aug-31 22:34N 47°31' W 122°24'0 1.3
2015-Aug-31 22:12N 47°32' W 122°24'3 4.5
2015-Aug-31 21:33N 47°31' W 122°29'0 9.3
2015-Aug-31 21:32N 47°32' W 122°28'2 2.2
2015-Aug-31 20:33N 47°31' W 122°25'013.4
2015-Aug-31 20:32N 47°31' W 122°25'3 2.9
2015-Aug-31 19:33N 47°31' W 122°29'011.0
2015-Aug-31 19:32N 47°31' W 122°29'4 3.9
2015-Aug-31 18:32N 47°31' W 122°24'0 0.9
2015-Aug-31 18:22N 47°31' W 122°24'0 0.1
2015-Aug-31 17:33N 47°31' W 122°24'011.3
2015-Aug-31 17:31N 47°31' W 122°25'2 2.3
2015-Aug-31 16:33N 47°31' W 122°28'0 0.8
2015-Aug-31 16:21N 47°31' W 122°28'0 0.2
2015-Aug-31 15:34N 47°31' W 122°28'1 5.8
2015-Aug-31 15:26N 47°31' W 122°29'3 3.7
2015-Aug-31 14:34N 47°31' W 122°24'112.4
2015-Aug-31 14:31N 47°31' W 122°25'0 0.5
2015-Aug-31 13:34N 47°31' W 122°24'113.2
2015-Aug-31 13:31N 47°31' W 122°25'2 2.0
2015-Aug-31 12:33N 47°31' W 122°28'1 6.3
2015-Aug-31 12:25N 47°31' W 122°27'1 1.0
2015-Aug-31 11:33N 47°31' W 122°28'1 7.2
2015-Aug-31 11:25N 47°31' W 122°29'1 1.2
2015-Aug-31 10:33N 47°31' W 122°28'0 0.0
2015-Aug-31 10:30N 47°31' W 122°28'0 0.0
2015-Aug-31 09:33N 47°31' W 122°28'0 0.0
2015-Aug-31 09:29N 47°31' W 122°28'0 0.0
2015-Aug-31 08:33N 47°31' W 122°28'0 0.0
2015-Aug-31 08:29N 47°31' W 122°28'0 0.0
2015-Aug-31 07:33N 47°31' W 122°28'0 0.0
2015-Aug-31 07:24N 47°31' W 122°28'0 0.0
2015-Aug-31 06:33N 47°31' W 122°28'0 0.0
2015-Aug-31 06:29N 47°31' W 122°28'0 0.0
2015-Aug-31 05:33N 47°31' W 122°28'0 0.0
2015-Aug-31 05:29N 47°31' W 122°28'0 0.0
2015-Aug-31 04:33N 47°31' W 122°28'0 0.0
2015-Aug-31 04:29N 47°31' W 122°28'0 0.0
2015-Aug-31 03:33N 47°31' W 122°28'0 0.0
2015-Aug-31 03:33N 47°31' W 122°28'0 0.0
2015-Aug-31 02:33N 47°31' W 122°28'0 0.0
2015-Aug-31 02:33N 47°31' W 122°28'3 2.8
2015-Aug-31 01:34N 47°31' W 122°24'0 1.3
2015-Aug-31 01:13N 47°31' W 122°24'4 5.6
2015-Aug-31 00:33N 47°31' W 122°30'0 0.5
2015-Aug-31 00:28N 47°31' W 122°30'2 2.3
2015-Aug-30 23:34N 47°31' W 122°27'1 8.5
2015-Aug-30 23:28N 47°31' W 122°28'0 0.4
2015-Aug-30 22:33N 47°31' W 122°27'215.9
2015-Aug-30 22:28N 47°31' W 122°25'0 0.1
2015-Aug-30 21:33N 47°31' W 122°25'015.0
2015-Aug-30 21:32N 47°31' W 122°24'2 2.5
2015-Aug-30 20:33N 47°31' W 122°28'8 7.6
2015-Aug-30 19:33N 47°38' W 122°28'1515.2
2015-Aug-30 18:34N 47°53' W 122°23'5 5.0
2015-Aug-30 17:31N 47°57' W 122°18'0 0.5
2015-Aug-30 16:33N 47°57' W 122°19'0 0.1
2015-Aug-30 15:33N 47°57' W 122°19'2 0.1
2015-Aug-29 20:07N 47°58' W 122°21'2 4.1
2015-Aug-29 19:33N 47°57' W 122°18'0 0.1
2015-Aug-29 17:12N 47°57' W 122°18'0 0.5
2015-Aug-29 16:33N 47°57' W 122°19'0 0.0
2015-Aug-29 15:33N 47°57' W 122°19'0 0.0
2015-Aug-29 14:33N 47°57' W 122°19'0 0.1
2015-Aug-29 13:33N 47°57' W 122°19'2 0.6
2015-Aug-29 10:10N 47°59' W 122°21'0 0.0
2015-Aug-29 07:27N 47°59' W 122°21'2 2.5
2015-Aug-29 06:33N 47°57' W 122°18'0 0.2
2015-Aug-29 05:34N 47°57' W 122°19'0 0.2
2015-Aug-29 04:33N 47°57' W 122°18'1 0.6
2015-Aug-29 03:34N 47°57' W 122°19'1 0.5
2015-Aug-29 02:15N 47°57' W 122°18'1 0.8
2015-Aug-29 01:33N 47°57' W 122°19'1 0.5
2015-Aug-29 00:33N 47°57' W 122°18'0 0.1
2015-Aug-28 23:33N 47°57' W 122°18'0 0.0
2015-Aug-28 22:31N 47°57' W 122°18'1 0.7
2015-Aug-28 21:34N 47°57' W 122°19'1 0.6
2015-Aug-28 20:33N 47°57' W 122°18'0 0.1
2015-Aug-28 19:34N 47°57' W 122°18'0 0.0
2015-Aug-28 18:33N 47°57' W 122°18'0 0.1
2015-Aug-28 17:33N 47°57' W 122°18'0 0.5
2015-Aug-28 16:33N 47°57' W 122°19'0 0.1
2015-Aug-28 15:34N 47°57' W 122°19'0 0.3
2015-Aug-28 14:33N 47°57' W 122°18'0 0.3
2015-Aug-28 13:33N 47°57' W 122°19'0 0.4
2015-Aug-28 12:26N 47°57' W 122°18'2 1.2
2015-Aug-28 10:33N 47°58' W 122°21'0 0.0
2015-Aug-28 09:19N 47°58' W 122°21'0 0.0
2015-Aug-28 08:28N 47°58' W 122°21'0 0.4
2015-Aug-28 07:32N 47°58' W 122°21'0 0.1
2015-Aug-28 06:33N 47°58' W 122°21'0 0.3
2015-Aug-28 05:33N 47°58' W 122°21'2 1.7
2015-Aug-28 04:34N 47°57' W 122°19'0 0.4
2015-Aug-28 03:33N 47°57' W 122°19'0 0.3
2015-Aug-28 02:32N 47°57' W 122°18'0 0.0
2015-Aug-28 01:19N 47°57' W 122°18'0 0.0
2015-Aug-28 00:30N 47°57' W 122°18'0 0.0
2015-Aug-27 23:21N 47°57' W 122°18'0 0.0
2015-Aug-27 22:33N 47°57' W 122°18'0 0.0
2015-Aug-27 21:18N 47°57' W 122°18'0 0.0
2015-Aug-27 20:18N 47°57' W 122°18'0 0.1
2015-Aug-27 19:33N 47°57' W 122°18'0 0.0
2015-Aug-27 18:28N 47°57' W 122°18'0 0.2
2015-Aug-27 17:33N 47°57' W 122°18'0 0.2
2015-Aug-27 16:33N 47°57' W 122°19'0 0.1
2015-Aug-27 15:33N 47°57' W 122°19'0 0.1
2015-Aug-27 14:33N 47°57' W 122°19'0 0.0
2015-Aug-27 13:33N 47°57' W 122°19'1 0.5
2015-Aug-27 12:27N 47°57' W 122°18'2 0.4
2015-Aug-27 06:07N 47°59' W 122°21'0 0.0
2015-Aug-27 05:09N 47°59' W 122°21'0 0.0
2015-Aug-27 04:33N 47°59' W 122°21'2 2.4
2015-Aug-27 03:32N 47°57' W 122°18'0 0.0
2015-Aug-27 02:33N 47°57' W 122°18'0 0.0
2015-Aug-27 01:33N 47°57' W 122°18'0 0.0
2015-Aug-27 00:33N 47°57' W 122°18'0 0.0
2015-Aug-26 23:33N 47°57' W 122°18'0 0.0
2015-Aug-26 22:33N 47°57' W 122°18'0 0.0
2015-Aug-26 21:33N 47°57' W 122°18'0 0.0
2015-Aug-26 20:33N 47°57' W 122°18'0 0.1
2015-Aug-26 19:33N 47°57' W 122°18'0 0.5
2015-Aug-26 18:33N 47°57' W 122°19'0 0.1
2015-Aug-26 17:33N 47°57' W 122°19'0 0.4
2015-Aug-26 16:33N 47°57' W 122°18'0 0.1
2015-Aug-26 15:19N 47°57' W 122°18'0 0.3
2015-Aug-26 14:33N 47°57' W 122°19'0 0.3
2015-Aug-26 13:33N 47°57' W 122°19'1 0.4
2015-Aug-26 12:24N 47°57' W 122°18'2 0.7
2015-Aug-26 09:10N 47°58' W 122°21'0 0.0
2015-Aug-26 08:30N 47°58' W 122°21'0 0.4
2015-Aug-26 07:33N 47°58' W 122°21'0 0.2
2015-Aug-26 06:33N 47°58' W 122°20'0 0.3
2015-Aug-26 05:32N 47°58' W 122°21'0 0.0
2015-Aug-26 04:33N 47°58' W 122°21'1 1.1
2015-Aug-26 03:33N 47°57' W 122°20'1 0.8
2015-Aug-26 02:19N 47°57' W 122°18'0 0.1
2015-Aug-26 01:33N 47°57' W 122°18'0 0.0
2015-Aug-26 00:33N 47°57' W 122°18'0 0.0
2015-Aug-25 23:33N 47°57' W 122°18'0 0.0
2015-Aug-25 22:20N 47°57' W 122°18'0 0.0
2015-Aug-25 21:33N 47°57' W 122°18'0 0.3
2015-Aug-25 20:33N 47°57' W 122°19'0 0.1
2015-Aug-25 19:33N 47°57' W 122°19'0 0.1
2015-Aug-25 18:33N 47°57' W 122°19'0 0.4
2015-Aug-25 17:33N 47°57' W 122°18'0 0.2
2015-Aug-25 16:33N 47°57' W 122°19'0 0.1
2015-Aug-25 15:33N 47°57' W 122°19'0 0.2
2015-Aug-25 14:33N 47°57' W 122°19'0 0.1
2015-Aug-25 13:33N 47°57' W 122°19'0 0.3
2015-Aug-25 12:26N 47°57' W 122°18'2 1.2
2015-Aug-25 10:32N 47°58' W 122°21'0 0.0
2015-Aug-25 09:31N 47°58' W 122°21'0 0.0
2015-Aug-25 08:33N 47°58' W 122°21'1 0.7
2015-Aug-25 07:33N 47°58' W 122°20'0 0.3
2015-Aug-25 06:33N 47°58' W 122°20'0 0.2
2015-Aug-25 05:32N 47°58' W 122°21'0 0.3
2015-Aug-25 04:33N 47°58' W 122°21'1 1.1
2015-Aug-25 03:33N 47°58' W 122°20'1 1.0
2015-Aug-25 02:13N 47°57' W 122°18'0 0.5
2015-Aug-25 01:34N 47°57' W 122°19'0 0.3
2015-Aug-25 00:27N 47°57' W 122°18'0 0.0
2015-Aug-24 23:16N 47°57' W 122°18'0 0.0
2015-Aug-24 22:17N 47°57' W 122°18'0 0.0
2015-Aug-24 21:32N 47°57' W 122°18'  

Dump ship's entire track history